Time;durP1;ratioP1;P1;durP2;ratioP2;P2;SDS_P1;SDS_P2;PMS_P1;PMS_P2;Temp;Humidity;BMP_temperature;BMP_pressure;BME280_temperature;BME280_humidity;BME280_pressure;Samples;Min_cycle;Max_cycle;Signal;HPM_P1;HPM_P2
2021/01/20 00:02:15;;;;;;;6.10;3.83;;;;;;;25.51;15.81;97516.13;5036768;28;20434;-82
2021/01/20 00:04:41;;;;;;;5.80;3.78;;;;;;;25.81;15.67;97520.28;5041467;28;20029;-81
2021/01/20 00:07:08;;;;;;;7.32;3.38;;;;;;;25.44;15.87;97522.00;5042474;28;20034;-82
2021/01/20 00:09:34;;;;;;;5.38;3.67;;;;;;;25.33;16.25;97519.56;5040529;28;20029;-82
2021/01/20 00:12:00;;;;;;;5.45;3.30;;;;;;;25.30;16.01;97520.47;5040683;28;20033;-82
2021/01/20 00:14:26;;;;;;;5.00;3.22;;;;;;;25.78;15.40;97524.00;5040029;28;20104;-82
2021/01/20 00:16:52;;;;;;;5.40;3.65;;;;;;;26.10;15.26;97526.38;5039140;28;20487;-82
2021/01/20 00:19:18;;;;;;;5.05;2.92;;;;;;;26.22;15.28;97531.16;5038843;28;20083;-82
2021/01/20 00:21:44;;;;;;;4.18;2.95;;;;;;;25.94;15.46;97530.19;5038128;28;20043;-82
2021/01/20 00:24:10;;;;;;;7.18;3.95;;;;;;;25.91;15.48;97530.31;5039959;28;20051;-81
2021/01/20 00:26:36;;;;;;;4.80;3.28;;;;;;;26.35;15.06;97533.88;5042129;28;20033;-81
2021/01/20 00:29:02;;;;;;;5.50;3.45;;;;;;;26.68;14.83;97532.09;5040104;28;20095;-82
2021/01/20 00:31:28;;;;;;;5.60;4.18;;;;;;;26.65;14.88;97535.88;5037335;28;20448;-81
2021/01/20 00:33:54;;;;;;;4.72;3.28;;;;;;;26.70;14.83;97529.59;5040336;28;20030;-82
2021/01/20 00:36:20;;;;;;;3.55;2.55;;;;;;;26.45;15.04;97522.19;5039560;28;20059;-82
2021/01/20 00:38:46;;;;;;;5.90;3.22;;;;;;;25.93;15.20;97527.81;5038686;28;20037;-82
2021/01/20 00:41:13;;;;;;;4.80;2.83;;;;;;;24.54;16.70;97521.88;5038668;28;20112;-81
2021/01/20 00:43:39;;;;;;;3.92;2.80;;;;;;;25.06;16.16;97522.16;5040594;28;20039;-82
2021/01/20 00:46:05;;;;;;;4.95;3.17;;;;;;;25.48;15.79;97521.91;5040404;28;20127;-82
2021/01/20 00:48:31;;;;;;;5.47;3.10;;;;;;;25.40;16.00;97519.31;5038442;28;20104;-82
2021/01/20 00:50:58;;;;;;;5.88;3.15;;;;;;;25.29;15.83;97524.53;5042005;28;20482;-81
2021/01/20 00:53:25;;;;;;;3.35;2.22;;;;;;;25.60;15.62;97507.00;5038780;28;20037;-82
2021/01/20 00:55:51;;;;;;;3.05;2.35;;;;;;;25.64;15.58;97524.50;5039821;28;20116;-82
2021/01/20 00:58:17;;;;;;;3.15;2.25;;;;;;;26.03;15.16;97515.38;5037019;28;20029;-83
2021/01/20 01:00:43;;;;;;;4.70;2.22;;;;;;;25.93;15.24;97519.38;5039377;28;20052;-82
2021/01/20 01:03:10;;;;;;;3.35;2.10;;;;;;;25.60;15.50;97532.31;5037473;28;20021;-82
2021/01/20 01:05:36;;;;;;;3.67;2.40;;;;;;;25.63;15.59;97532.16;5037326;28;20483;-82
2021/01/20 01:08:03;;;;;;;3.78;2.45;;;;;;;25.88;15.25;97532.00;5039032;28;20021;-82
2021/01/20 01:10:29;;;;;;;3.58;2.15;;;;;;;25.97;15.24;97523.66;5037979;28;20048;-82
2021/01/20 01:12:55;;;;;;;3.95;2.65;;;;;;;25.88;15.44;97529.19;5036988;28;20064;-82
2021/01/20 01:15:21;;;;;;;4.93;2.53;;;;;;;25.64;15.38;97522.50;5037916;28;20040;-82
2021/01/20 01:17:47;;;;;;;3.30;2.35;;;;;;;25.25;15.94;97525.91;5041423;28;20524;-82
2021/01/20 01:20:13;;;;;;;4.03;2.40;;;;;;;25.01;16.14;97524.75;5042229;28;20103;-82
2021/01/20 01:22:39;;;;;;;3.08;2.35;;;;;;;25.33;15.59;97525.19;5040369;28;20025;-82
2021/01/20 01:25:06;;;;;;;2.92;2.08;;;;;;;25.07;16.07;97518.09;5040735;28;20138;-82
2021/01/20 01:27:33;;;;;;;4.07;2.55;;;;;;;25.11;15.92;97513.13;5037223;28;20402;-82
2021/01/20 01:29:59;;;;;;;3.50;1.95;;;;;;;25.64;15.83;97519.69;5036742;28;20629;-82
2021/01/20 01:32:25;;;;;;;4.60;3.10;;;;;;;25.02;15.92;97510.25;5037327;28;20029;-82
2021/01/20 01:34:51;;;;;;;2.67;2.40;;;;;;;25.78;15.41;97513.53;5043951;28;20033;-82
2021/01/20 01:37:17;;;;;;;2.83;2.20;;;;;;;25.82;15.44;97505.75;5038945;28;20037;-82
2021/01/20 01:39:43;;;;;;;2.90;2.28;;;;;;;26.19;15.31;97517.19;5038748;28;20150;-82
2021/01/20 01:42:11;;;;;;;2.45;2.13;;;;;;;26.35;14.86;97514.94;5047346;28;20395;-82
2021/01/20 01:44:39;;;;;;;2.88;2.35;;;;;;;26.49;14.86;97516.41;5034934;28;20033;-82
2021/01/20 01:47:05;;;;;;;3.33;2.10;;;;;;;26.61;14.74;97509.84;5039646;28;20029;-82
2021/01/20 01:49:32;;;;;;;2.70;2.28;;;;;;;26.80;14.40;97527.63;5039929;28;20036;-82
2021/01/20 01:52:01;;;;;;;2.88;2.42;;;;;;;26.72;14.61;97524.31;5037679;28;20082;-82
2021/01/20 01:54:29;;;;;;;2.38;2.08;;;;;;;26.82;14.25;97520.28;5042254;28;20038;-82
2021/01/20 01:56:55;;;;;;;2.80;1.70;;;;;;;26.88;14.56;97521.25;5046457;28;20032;-82
2021/01/20 01:59:22;;;;;;;2.80;2.05;;;;;;;26.96;14.38;97519.69;5043366;28;20090;-82
2021/01/20 02:01:49;;;;;;;2.97;1.60;;;;;;;26.84;14.55;97514.19;5045214;28;20021;-82
2021/01/20 02:04:15;;;;;;;3.53;2.33;;;;;;;26.99;14.45;97517.97;5041124;28;20029;-82
2021/01/20 02:06:42;;;;;;;2.40;1.98;;;;;;;27.06;14.36;97520.47;5044277;28;20030;-82
2021/01/20 02:09:08;;;;;;;2.22;1.65;;;;;;;27.03;14.36;97518.59;5045572;28;20040;-82
2021/01/20 02:11:59;;;;;;;2.67;1.88;;;;;;;26.97;14.10;97523.28;5055236;28;20030;-82
2021/01/20 02:14:43;;;;;;;2.85;1.83;;;;;;;27.01;14.40;97521.09;5041178;28;20031;-82
2021/01/20 02:17:37;;;;;;;2.30;1.90;;;;;;;27.13;14.17;97520.97;5039510;28;20037;-82
2021/01/20 02:20:25;;;;;;;2.67;2.25;;;;;;;26.74;14.18;97530.25;5046389;28;20041;-82
2021/01/20 02:22:53;;;;;;;3.38;2.00;;;;;;;26.56;14.35;97530.97;5040970;28;20065;-81
2021/01/20 02:25:31;;;;;;;2.53;2.08;;;;;;;26.41;14.49;97530.00;5040689;28;20143;-82
2021/01/20 02:28:13;;;;;;;2.65;1.77;;;;;;;25.77;15.14;97526.00;5041971;28;20033;-82
2021/01/20 02:30:42;;;;;;;3.08;1.85;;;;;;;25.56;15.08;97523.19;5041716;28;20561;-82
2021/01/20 02:33:10;;;;;;;2.13;1.90;;;;;;;25.86;15.11;97528.09;5042777;28;20067;-82
2021/01/20 02:35:40;;;;;;;2.17;1.98;;;;;;;25.88;15.08;97532.00;5042471;28;20021;-82
2021/01/20 02:38:09;;;;;;;1.55;1.23;;;;;;;26.30;14.87;97540.88;5042496;28;20033;-82
2021/01/20 02:40:35;;;;;;;2.10;1.65;;;;;;;26.32;14.93;97540.41;5041644;28;20091;-82
2021/01/20 02:43:02;;;;;;;1.48;1.38;;;;;;;26.45;14.75;97535.47;5044853;28;20040;-81
2021/01/20 02:45:28;;;;;;;1.67;1.33;;;;;;;26.69;14.43;97539.31;5042097;28;20437;-82
2021/01/20 02:47:54;;;;;;;1.70;1.45;;;;;;;26.89;14.51;97538.91;5042582;28;20048;-82
2021/01/20 02:50:21;;;;;;;2.58;1.58;;;;;;;26.16;14.70;97535.03;5044288;28;20080;-82
2021/01/20 02:53:13;;;;;;;1.67;1.10;;;;;;;25.72;15.30;97535.03;5042386;28;20376;-82
2021/01/20 02:55:50;;;;;;;0.90;0.90;;;;;;;26.16;15.11;97532.22;5041073;28;20075;-82
2021/01/20 02:58:23;;;;;;;1.35;1.10;;;;;;;26.36;14.77;97521.34;5045475;28;20071;-82
2021/01/20 03:00:51;;;;;;;1.23;1.13;;;;;;;26.53;14.60;97534.72;5041815;28;20041;-82
2021/01/20 03:03:19;;;;;;;1.35;0.90;;;;;;;26.67;14.40;97533.38;5041295;28;20038;-82
2021/01/20 03:05:46;;;;;;;1.02;0.93;;;;;;;26.76;14.39;97527.00;5040989;28;20036;-82
2021/01/20 03:08:13;;;;;;;1.17;0.93;;;;;;;26.83;14.70;97527.50;5039496;28;20446;-82
2021/01/20 03:10:40;;;;;;;0.98;0.80;;;;;;;26.79;14.65;97521.22;5043229;28;20025;-82
2021/01/20 03:13:06;;;;;;;1.30;1.13;;;;;;;26.51;14.84;97520.31;5043068;28;20025;-81
2021/01/20 03:15:40;;;;;;;0.82;0.70;;;;;;;26.96;14.65;97530.16;5040831;28;20197;-82
2021/01/20 03:18:07;;;;;;;0.70;0.70;;;;;;;27.28;14.49;97523.97;5041909;28;20040;-82
2021/01/20 03:20:37;;;;;;;0.85;0.73;;;;;;;27.47;14.38;97531.16;5040839;28;20514;-82
2021/01/20 03:23:05;;;;;;;0.80;0.77;;;;;;;27.58;14.15;97525.84;5040054;28;20071;-82
2021/01/20 03:25:31;;;;;;;1.25;0.98;;;;;;;27.59;14.04;97524.59;5041341;28;20025;-82
2021/01/20 03:27:57;;;;;;;2.45;1.17;;;;;;;27.63;14.00;97521.63;5040054;28;20112;-82
2021/01/20 03:30:24;;;;;;;1.92;1.27;;;;;;;27.54;14.06;97525.22;5038858;28;20063;-82
2021/01/20 03:32:50;;;;;;;0.98;0.90;;;;;;;27.46;14.15;97521.16;5038913;28;20047;-82
2021/01/20 03:35:16;;;;;;;1.50;1.08;;;;;;;27.43;14.53;97524.91;5041048;28;20509;-82
2021/01/20 03:37:42;;;;;;;0.77;0.75;;;;;;;27.65;14.20;97527.56;5040437;28;20061;-82
2021/01/20 03:40:09;;;;;;;1.08;0.98;;;;;;;27.75;14.26;97517.84;5044363;28;20034;-82
2021/01/20 03:42:36;;;;;;;1.13;1.00;;;;;;;27.80;13.90;97522.84;5046319;28;20041;-82
2021/01/20 03:45:02;;;;;;;1.33;1.15;;;;;;;27.81;14.14;97525.19;5040374;28;20112;-82
2021/01/20 03:47:28;;;;;;;1.45;1.30;;;;;;;27.89;14.08;97531.31;5039869;28;20330;-82
2021/01/20 03:49:55;;;;;;;1.15;1.05;;;;;;;27.83;14.22;97533.19;5042352;28;20033;-82
2021/01/20 03:52:21;;;;;;;1.88;1.27;;;;;;;27.69;14.25;97525.38;5040850;28;20158;-82
2021/01/20 03:54:47;;;;;;;1.20;1.08;;;;;;;27.55;14.50;97528.81;5038921;28;20079;-82
2021/01/20 03:57:13;;;;;;;0.80;0.80;;;;;;;27.59;14.50;97527.41;5039765;28;20045;-82
2021/01/20 03:59:39;;;;;;;1.65;0.98;;;;;;;27.49;14.66;97534.31;5039326;28;20425;-82
2021/01/20 04:02:06;;;;;;;1.00;0.90;;;;;;;27.31;14.79;97537.09;5041749;28;20497;-82
2021/01/20 04:04:32;;;;;;;1.02;0.80;;;;;;;27.25;14.75;97541.78;5039799;28;20052;-82
2021/01/20 04:07:01;;;;;;;0.93;0.85;;;;;;;27.45;14.75;97538.53;5038602;28;20130;-82
2021/01/20 04:09:27;;;;;;;1.50;0.70;;;;;;;27.67;14.49;97539.16;5039184;28;20511;-82
2021/01/20 04:11:54;;;;;;;1.55;1.00;;;;;;;27.61;14.36;97541.06;5038821;28;20037;-82
2021/01/20 04:14:20;;;;;;;0.80;0.60;;;;;;;27.56;14.63;97539.66;5037467;28;20079;-82
2021/01/20 04:16:46;;;;;;;2.25;1.05;;;;;;;27.44;14.54;97545.44;5038136;28;20056;-82
2021/01/20 04:19:13;;;;;;;1.88;0.85;;;;;;;27.44;14.78;97539.81;5038947;28;20387;-82
2021/01/20 04:21:39;;;;;;;0.85;0.70;;;;;;;27.54;14.52;97541.38;5040293;28;20088;-82
2021/01/20 04:24:06;;;;;;;1.25;0.70;;;;;;;27.75;14.36;97541.19;5038394;28;20080;-82
2021/01/20 04:26:32;;;;;;;1.40;1.10;;;;;;;27.88;14.42;97536.16;5040165;28;20041;-82
2021/01/20 04:28:58;;;;;;;1.35;0.75;;;;;;;27.98;14.11;97542.56;5036591;28;20102;-84
2021/01/20 04:31:24;;;;;;;1.17;0.88;;;;;;;27.86;14.39;97535.06;5040628;28;20052;-83
2021/01/20 04:33:50;;;;;;;0.93;0.93;;;;;;;26.86;15.14;97551.13;5039879;28;20387;-82
2021/01/20 04:36:17;;;;;;;0.65;0.60;;;;;;;26.37;15.61;97543.41;5041686;28;20028;-83
2021/01/20 04:38:43;;;;;;;0.88;0.82;;;;;;;26.49;15.44;97547.38;5037807;28;20041;-83
2021/01/20 04:41:09;;;;;;;2.83;1.33;;;;;;;26.59;15.63;97552.56;5042693;28;20389;-83
2021/01/20 04:43:35;;;;;;;3.42;1.88;;;;;;;26.81;15.43;97555.34;5056657;28;20029;-82
2021/01/20 04:46:02;;;;;;;2.50;1.20;;;;;;;27.20;15.06;97550.88;5040263;28;20478;-82
2021/01/20 04:48:31;;;;;;;3.20;1.35;;;;;;;26.79;15.43;97552.22;5040351;28;20079;-82
2021/01/20 04:51:03;;;;;;;3.80;1.50;;;;;;;26.89;15.11;97553.00;5039105;28;20057;-82
2021/01/20 04:53:32;;;;;;;4.43;1.50;;;;;;;27.22;15.01;97548.38;5036590;28;20021;-82
2021/01/20 04:56:12;;;;;;;1.75;1.10;;;;;;;27.47;14.90;97550.16;5038329;28;20032;-82
2021/01/20 04:58:38;;;;;;;1.42;1.02;;;;;;;27.74;14.58;97545.28;5041000;28;20033;-82
2021/01/20 05:01:04;;;;;;;2.08;1.02;;;;;;;27.46;14.77;97543.72;5044429;28;20037;-83
2021/01/20 05:03:31;;;;;;;5.05;1.50;;;;;;;27.11;15.13;97548.84;5041082;28;20029;-82
2021/01/20 05:05:58;;;;;;;2.75;1.40;;;;;;;27.14;15.26;97539.41;5044592;28;20025;-83
2021/01/20 05:08:24;;;;;;;2.72;1.45;;;;;;;27.23;15.04;97538.66;5051156;28;20060;-83
2021/01/20 05:10:51;;;;;;;2.72;1.60;;;;;;;26.90;15.13;97537.66;5045846;28;20113;-83
2021/01/20 05:13:28;;;;;;;4.95;1.88;;;;;;;25.70;16.23;97547.97;5044477;28;20037;-83
2021/01/20 05:15:55;;;;;;;2.90;1.48;;;;;;;25.78;16.35;97552.13;5045616;28;20030;-83
2021/01/20 05:18:22;;;;;;;2.38;1.45;;;;;;;25.87;16.43;97552.16;5071112;28;20396;-82
2021/01/20 05:20:49;;;;;;;2.58;1.75;;;;;;;26.25;16.08;97555.56;5040980;28;20075;-82
2021/01/20 05:23:23;;;;;;;2.10;1.33;;;;;;;26.47;15.82;97558.31;5053501;28;20031;-83
2021/01/20 05:25:50;;;;;;;1.70;1.10;;;;;;;26.52;15.67;97564.13;5065963;28;20032;-83
2021/01/20 05:28:27;;;;;;;1.33;1.13;;;;;;;26.68;15.53;97565.91;5047955;28;20033;-83
2021/01/20 05:31:00;;;;;;;2.20;1.23;;;;;;;26.65;15.47;97569.66;5036639;28;20545;-82
2021/01/20 05:33:40;;;;;;;2.50;1.13;;;;;;;26.47;15.90;97572.38;5040590;28;20029;-83
2021/01/20 05:36:11;;;;;;;1.98;1.35;;;;;;;26.80;15.51;97572.69;5037323;28;20057;-82
2021/01/20 05:38:44;;;;;;;2.17;1.05;;;;;;;26.81;15.35;97568.63;5039412;28;20040;-82
2021/01/20 05:41:29;;;;;;;4.20;1.85;;;;;;;26.71;15.61;97559.34;5038831;28;20021;-83
2021/01/20 05:44:15;;;;;;;2.63;1.48;;;;;;;26.78;15.62;97569.56;5037085;28;20033;-82
2021/01/20 05:46:43;;;;;;;5.70;2.92;;;;;;;26.95;15.52;97568.06;5036205;28;20166;-82
2021/01/20 05:49:23;;;;;;;6.35;3.03;;;;;;;26.84;15.36;97564.91;5039714;28;20040;-83
2021/01/20 05:51:50;;;;;;;9.00;4.18;;;;;;;26.69;15.45;97559.81;5038986;28;20025;-82
2021/01/20 05:54:29;;;;;;;5.40;2.53;;;;;;;26.87;15.57;97558.31;5042266;28;20029;-83
2021/01/20 05:57:07;;;;;;;2.80;1.70;;;;;;;27.17;15.24;97558.22;5043434;28;20040;-82
2021/01/20 05:59:35;;;;;;;2.53;1.50;;;;;;;27.19;15.32;97563.41;5038927;28;20091;-84
2021/01/20 06:02:02;;;;;;;4.15;2.28;;;;;;;27.20;15.43;97559.31;5046709;28;20493;-88
2021/01/20 06:04:30;;;;;;;2.78;1.38;;;;;;;27.06;15.48;97568.38;5038952;28;20041;-85
2021/01/20 06:06:57;;;;;;;4.65;3.33;;;;;;;27.18;15.08;97573.91;5037798;28;20037;-84
2021/01/20 06:09:25;;;;;;;3.97;2.65;;;;;;;27.30;15.17;97563.72;5038966;28;20560;-85
2021/01/20 06:11:51;;;;;;;3.42;2.15;;;;;;;27.25;15.20;97567.16;5044225;28;20034;-84
2021/01/20 06:14:17;;;;;;;5.28;3.28;;;;;;;27.21;15.21;97552.44;5052829;28;20037;-85
2021/01/20 06:16:48;;;;;;;4.78;2.22;;;;;;;27.12;15.15;97566.53;5047135;28;20025;-84
2021/01/20 06:19:19;;;;;;;4.87;2.27;;;;;;;26.76;15.98;97575.66;5051357;28;20078;-83
2021/01/20 06:21:48;;;;;;;5.18;2.35;;;;;;;26.82;15.79;97570.19;5052501;28;20326;-83
2021/01/20 06:24:35;;;;;;;5.05;2.08;;;;;;;26.83;15.72;97578.19;5048638;28;20030;-86
2021/01/20 06:27:28;;;;;;;2.35;1.50;;;;;;;26.74;15.88;97584.56;5039981;28;20056;-85
2021/01/20 06:30:06;;;;;;;7.82;3.15;;;;;;;26.94;15.51;97580.56;5040889;28;20421;-85
2021/01/20 06:32:35;;;;;;;13.35;5.95;;;;;;;27.20;15.18;97593.94;5041590;28;20120;-85
2021/01/20 06:35:01;;;;;;;5.03;2.45;;;;;;;27.23;15.53;97597.84;5039712;28;20116;-87
2021/01/20 06:37:40;;;;;;;3.65;2.42;;;;;;;27.20;15.54;97593.94;5049710;28;20040;-84
2021/01/20 06:40:32;;;;;;;2.33;1.63;;;;;;;27.03;15.64;97603.91;5050726;28;20032;-85
2021/01/20 06:42:58;;;;;;;2.22;1.45;;;;;;;27.17;15.42;97599.72;5049308;28;20040;-86
2021/01/20 06:45:26;;;;;;;2.80;1.75;;;;;;;26.66;16.14;97597.34;5049406;28;20091;-85
2021/01/20 06:48:03;;;;;;;1.70;1.27;;;;;;;26.56;15.75;97609.00;5055661;28;20045;-86
2021/01/20 06:50:29;;;;;;;3.17;1.38;;;;;;;26.77;16.14;97607.44;5048891;28;20398;-85
2021/01/20 06:53:08;;;;;;;4.53;2.13;;;;;;;27.04;15.80;97604.69;5047049;28;20029;-86
2021/01/20 06:55:39;;;;;;;6.07;2.38;;;;;;;27.03;15.68;97606.72;5055530;28;20049;-86
2021/01/20 06:58:25;;;;;;;4.18;1.98;;;;;;;26.99;15.61;97605.31;5055671;28;20091;-86
2021/01/20 07:01:00;;;;;;;3.20;1.67;;;;;;;26.87;16.18;97609.03;5055505;28;20087;-86
2021/01/20 07:03:49;;;;;;;4.80;2.30;;;;;;;26.68;15.96;97611.75;5048071;28;20033;-86
2021/01/20 07:06:34;;;;;;;6.60;2.80;;;;;;;26.82;15.89;97618.06;5062488;28;20029;-86
2021/01/20 07:09:04;;;;;;;5.25;2.50;;;;;;;26.96;15.87;97614.69;5057769;28;20083;-85
2021/01/20 07:11:30;;;;;;;4.67;2.73;;;;;;;27.33;15.95;97619.16;5059204;28;20033;-85
2021/01/20 07:13:57;;;;;;;5.93;2.38;;;;;;;27.36;15.52;97618.22;5058805;28;20091;-85
2021/01/20 07:16:24;;;;;;;3.90;1.90;;;;;;;27.19;15.79;97616.97;5059847;28;20375;-85
2021/01/20 07:18:52;;;;;;;4.28;2.13;;;;;;;27.08;15.98;97623.03;5055096;28;20032;-86
2021/01/20 07:21:19;;;;;;;3.92;2.00;;;;;;;27.38;15.84;97615.75;5054999;28;20078;-86
2021/01/20 07:23:45;;;;;;;2.97;1.92;;;;;;;27.80;15.44;97613.91;5055042;28;20394;-86
2021/01/20 07:26:13;;;;;;;2.75;1.95;;;;;;;28.12;15.34;97617.38;5055152;28;20072;-86
2021/01/20 07:28:40;;;;;;;2.53;1.83;;;;;;;27.93;15.54;97625.84;5054646;28;20032;-86
2021/01/20 07:31:12;;;;;;;3.10;1.73;;;;;;;27.46;15.43;97631.13;5064700;28;20149;-86
2021/01/20 07:33:40;;;;;;;2.85;1.60;;;;;;;27.44;15.66;97633.63;5055003;28;20036;-86
2021/01/20 07:36:11;;;;;;;2.35;1.90;;;;;;;26.76;16.09;97634.81;5054742;28;20029;-86
2021/01/20 07:38:37;;;;;;;;;;;;;;;27.38;16.01;97633.47;5055256;28;20490;-86
2021/01/20 07:41:14;;;;;;;3.10;1.85;;;;;;;27.64;16.16;97636.78;5054341;28;19923;-86
2021/01/20 07:43:40;;;;;;;3.70;2.05;;;;;;;27.68;15.91;97636.66;5043629;28;20037;-86
2021/01/20 07:46:17;;;;;;;6.43;3.92;;;;;;;27.98;15.60;97635.72;5061525;28;20485;-86
2021/01/20 07:48:44;;;;;;;3.63;2.47;;;;;;;27.98;15.58;97636.47;5059130;28;20045;-86
2021/01/20 07:51:21;;;;;;;2.33;1.60;;;;;;;27.76;16.09;97652.78;5054158;28;20039;-86
2021/01/20 07:54:02;;;;;;;3.83;2.80;;;;;;;27.91;15.94;97650.88;5052862;28;20045;-86
2021/01/20 07:56:28;;;;;;;3.60;2.15;;;;;;;28.09;15.56;97655.78;5054720;28;20098;-86
2021/01/20 07:58:55;;;;;;;2.03;1.42;;;;;;;28.38;15.65;97664.53;5054441;28;20048;-86
2021/01/20 08:01:26;;;;;;;2.53;1.88;;;;;;;28.06;15.59;97662.38;5054426;28;20114;-86
2021/01/20 08:03:52;;;;;;;3.42;2.38;;;;;;;28.19;15.53;97656.56;5053014;28;20116;-86
2021/01/20 08:06:18;;;;;;;4.32;2.63;;;;;;;28.21;15.60;97662.53;5066925;28;20508;-85
2021/01/20 08:08:55;;;;;;;2.17;1.70;;;;;;;28.39;15.62;97666.09;5053421;28;20079;-86
2021/01/20 08:11:28;;;;;;;3.50;2.40;;;;;;;28.60;15.34;97667.19;5053566;28;20039;-85
2021/01/20 08:13:55;;;;;;;3.72;2.25;;;;;;;28.55;15.73;97670.59;5054326;28;20029;-85
2021/01/20 08:16:21;;;;;;;3.40;2.15;;;;;;;28.25;15.84;97680.06;5052598;28;20059;-85
2021/01/20 08:18:48;;;;;;;3.55;2.17;;;;;;;28.39;15.53;97671.75;5053930;28;20098;-84
2021/01/20 08:21:14;;;;;;;2.67;1.40;;;;;;;28.54;15.43;97672.66;5054458;28;20037;-85
2021/01/20 08:23:51;;;;;;;3.65;2.05;;;;;;;28.47;15.84;97675.81;5054243;28;20120;-85
2021/01/20 08:26:23;;;;;;;3.25;1.98;;;;;;;28.62;15.88;97684.44;5053856;28;20064;-85
2021/01/20 08:29:10;;;;;;;2.50;1.50;;;;;;;28.75;15.45;97679.41;5053789;28;20124;-85
2021/01/20 08:31:41;;;;;;;2.95;1.75;;;;;;;28.52;15.81;97685.72;5052806;28;20485;-85
2021/01/20 08:34:24;;;;;;;2.30;1.77;;;;;;;28.42;15.56;97679.28;5053979;28;20024;-85
2021/01/20 08:37:08;;;;;;;2.13;1.58;;;;;;;28.39;16.07;97683.03;5053590;28;20032;-85
2021/01/20 08:39:37;;;;;;;1.38;0.90;;;;;;;28.15;16.37;97679.31;5059182;28;20044;-85
2021/01/20 08:42:22;;;;;;;1.13;0.90;;;;;;;28.55;16.18;97677.06;5042662;28;20036;-85
2021/01/20 08:45:20;;;;;;;1.63;0.88;;;;;;;28.80;15.56;97680.78;5053386;28;20040;-85
2021/01/20 08:47:48;;;;;;;4.47;2.78;;;;;;;28.89;15.91;97675.09;5052183;28;20413;-85
2021/01/20 08:50:19;;;;;;;10.00;4.53;;;;;;;28.97;15.58;97674.28;5053511;28;20043;-85
2021/01/20 08:52:51;;;;;;;16.63;6.57;;;;;;;29.01;16.03;97674.88;5053305;28;20033;-85
2021/01/20 08:55:26;;;;;;;11.38;4.50;;;;;;;28.76;15.63;97672.47;5056357;28;20486;-85
2021/01/20 08:58:31;;;;;;;3.20;1.83;;;;;;;28.17;15.81;97673.19;5051147;28;20021;-85
2021/01/20 09:01:03;;;;;;;8.07;4.00;;;;;;;28.42;16.04;97673.63;5050390;28;20037;-85
2021/01/20 09:03:30;;;;;;;5.32;2.42;;;;;;;28.72;16.02;97680.34;5051242;28;20065;-85
2021/01/20 09:05:58;;;;;;;3.33;2.35;;;;;;;27.98;16.39;97687.25;5051438;28;20033;-85
2021/01/20 09:08:26;;;;;;;6.32;3.13;;;;;;;27.89;16.43;97689.31;5052085;28;20045;-86
2021/01/20 09:10:54;;;;;;;5.93;2.75;;;;;;;28.12;16.46;97687.94;5052971;28;20065;-86
2021/01/20 09:13:20;;;;;;;2.22;1.65;;;;;;;28.28;16.02;97685.59;5059383;28;20033;-86
2021/01/20 09:15:49;;;;;;;1.77;1.40;;;;;;;27.93;16.43;97690.75;5048360;28;20064;-86
2021/01/20 09:18:15;;;;;;;2.28;1.50;;;;;;;28.26;16.11;97684.47;5053002;28;20560;-85
2021/01/20 09:20:42;;;;;;;2.15;1.65;;;;;;;28.47;15.91;97678.63;5052942;28;20028;-85
2021/01/20 09:23:09;;;;;;;2.15;1.23;;;;;;;28.83;15.69;97679.81;5053027;28;20120;-85
2021/01/20 09:25:36;;;;;;;1.95;1.25;;;;;;;29.19;15.60;97679.72;5051517;28;20056;-85
2021/01/20 09:28:03;;;;;;;2.72;1.30;;;;;;;29.54;15.36;97683.63;5052864;28;20099;-85
2021/01/20 09:30:30;;;;;;;3.08;1.42;;;;;;;29.57;14.89;97693.19;5065824;28;20048;-85
2021/01/20 09:32:56;;;;;;;2.17;1.00;;;;;;;29.33;15.30;97701.66;5052793;28;20033;-85
2021/01/20 09:35:24;;;;;;;1.30;0.95;;;;;;;29.02;15.45;97710.38;5048931;28;20448;-85
2021/01/20 09:37:53;;;;;;;1.40;1.00;;;;;;;28.94;15.66;97697.84;5051570;28;20211;-85
2021/01/20 09:40:20;;;;;;;3.33;1.30;;;;;;;29.09;15.41;97704.38;5049171;28;20029;-85
2021/01/20 09:42:48;;;;;;;3.03;1.35;;;;;;;29.25;15.20;97701.22;5052451;28;20037;-82
2021/01/20 09:45:15;;;;;;;3.92;1.63;;;;;;;29.33;15.14;97699.59;5048345;28;20045;-83
2021/01/20 09:47:43;;;;;;;2.40;1.15;;;;;;;28.87;15.35;97694.59;5052114;28;20061;-83
2021/01/20 09:50:11;;;;;;;2.65;1.27;;;;;;;28.82;15.54;97696.03;5046766;28;20025;-83
2021/01/20 09:52:37;;;;;;;1.75;1.48;;;;;;;29.00;15.40;97695.16;5052554;28;20029;-83
2021/01/20 09:55:05;;;;;;;2.42;1.25;;;;;;;28.98;15.54;97686.38;5060611;28;20039;-84
2021/01/20 09:57:32;;;;;;;1.77;1.15;;;;;;;28.72;15.59;97689.59;5058513;28;20068;-85
2021/01/20 09:59:58;;;;;;;2.20;1.25;;;;;;;28.69;15.55;97681.28;5055403;28;20044;-84
2021/01/20 10:02:24;;;;;;;2.25;1.02;;;;;;;29.05;15.39;97686.03;5053431;28;20052;-85
2021/01/20 10:04:50;;;;;;;1.00;0.70;;;;;;;29.20;15.47;97676.41;5059663;28;20112;-85
2021/01/20 10:07:17;;;;;;;1.50;0.73;;;;;;;28.63;16.01;97671.91;5042496;28;20494;-84
2021/01/20 10:09:43;;;;;;;1.42;0.93;;;;;;;28.65;16.03;97678.63;5052441;28;20029;-85
2021/01/20 10:12:14;;;;;;;1.92;0.90;;;;;;;28.68;16.13;97679.72;5052388;28;20033;-85
2021/01/20 10:14:41;;;;;;;;;;;;;;;29.12;15.31;97665.91;5055295;28;20509;-85
2021/01/20 10:17:07;;;;;;;2.10;1.65;;;;;;;29.32;15.47;97664.09;5048093;28;19908;-85
2021/01/20 10:19:33;;;;;;;1.38;1.00;;;;;;;29.40;15.10;97673.81;5065071;28;20389;-84
2021/01/20 10:22:00;;;;;;;1.75;0.85;;;;;;;29.69;15.23;97663.84;5073056;28;20123;-85
2021/01/20 10:24:26;;;;;;;1.83;1.02;;;;;;;29.50;14.90;97654.69;5057762;28;20036;-85
2021/01/20 10:26:52;;;;;;;1.10;0.98;;;;;;;29.07;15.85;97649.59;5063310;28;20108;-85
2021/01/20 10:29:18;;;;;;;1.60;0.90;;;;;;;29.48;15.45;97645.91;5059573;28;20048;-85
2021/01/20 10:31:45;;;;;;;2.25;0.90;;;;;;;29.61;15.39;97645.69;5056853;28;20482;-85
2021/01/20 10:34:12;;;;;;;1.25;0.70;;;;;;;29.84;15.82;97648.53;5043139;28;20041;-84
2021/01/20 10:36:39;;;;;;;1.23;0.70;;;;;;;29.92;15.36;97651.78;5055608;28;20135;-84
2021/01/20 10:39:07;;;;;;;1.33;0.70;;;;;;;29.73;15.23;97647.50;5061811;28;20040;-84
2021/01/20 10:41:33;;;;;;;1.25;0.85;;;;;;;29.84;15.34;97648.53;5055545;28;20029;-84
2021/01/20 10:43:59;;;;;;;1.20;0.73;;;;;;;30.09;15.04;97645.16;5055739;28;20029;-84
2021/01/20 10:46:26;;;;;;;1.67;1.15;;;;;;;29.46;14.96;97642.00;5047915;28;20029;-84
2021/01/20 10:48:53;;;;;;;1.48;0.73;;;;;;;29.99;15.56;97642.91;5054691;28;20033;-85
2021/01/20 10:51:20;;;;;;;1.35;0.88;;;;;;;29.59;15.41;97636.91;5055616;28;20482;-84
2021/01/20 10:53:47;;;;;;;2.05;1.17;;;;;;;29.88;15.22;97639.84;5053044;28;20244;-85
2021/01/20 10:56:13;;;;;;;1.20;0.75;;;;;;;30.31;14.95;97638.34;5060629;28;20060;-85
2021/01/20 10:58:40;;;;;;;1.70;0.82;;;;;;;30.47;14.82;97633.03;5054276;28;20033;-84
2021/01/20 11:01:06;;;;;;;1.30;0.90;;;;;;;30.45;15.17;97632.72;5055512;28;20445;-85
2021/01/20 11:03:32;;;;;;;1.20;1.10;;;;;;;30.30;14.20;97639.63;5052267;28;20032;-84
2021/01/20 11:05:59;;;;;;;1.98;1.00;;;;;;;30.09;15.06;97635.88;5065768;28;20052;-84
2021/01/20 11:08:25;;;;;;;1.77;0.93;;;;;;;30.11;14.96;97639.00;5062312;28;20029;-84
2021/01/20 11:10:51;;;;;;;2.47;1.30;;;;;;;30.20;15.25;97616.25;5054783;28;20043;-84
2021/01/20 11:13:17;;;;;;;2.10;1.05;;;;;;;30.02;15.31;97620.06;5067998;28;20025;-84
2021/01/20 11:15:47;;;;;;;1.77;1.25;;;;;;;30.11;15.13;97615.59;5060968;28;20490;-84
2021/01/20 11:18:18;;;;;;;1.95;1.13;;;;;;;29.87;15.06;97613.56;5058940;28;20029;-85
2021/01/20 11:20:45;;;;;;;;;;;;;;;29.73;14.17;97617.16;5055889;28;20425;-84
2021/01/20 11:23:12;;;;;;;3.17;1.88;;;;;;;29.99;15.18;97612.53;5047108;28;20015;-85
2021/01/20 11:25:45;;;;;;;1.77;1.17;;;;;;;30.19;14.84;97609.03;5054361;28;20033;-85
2021/01/20 11:28:12;;;;;;;5.30;2.70;;;;;;;30.25;15.09;97604.25;5057623;28;20525;-85
2021/01/20 11:30:39;;;;;;;3.40;2.10;;;;;;;30.30;15.21;97606.41;5056948;28;20045;-85
2021/01/20 11:33:06;;;;;;;3.60;1.83;;;;;;;30.63;14.88;97604.19;5054745;28;20041;-85
2021/01/20 11:35:32;;;;;;;2.45;1.10;;;;;;;30.44;15.09;97602.81;5054754;28;20437;-85
2021/01/20 11:37:59;;;;;;;2.35;1.63;;;;;;;30.27;15.20;97595.28;5054713;28;20048;-85
2021/01/20 11:40:26;;;;;;;2.25;1.10;;;;;;;30.60;15.06;97598.69;5054766;28;20108;-85
2021/01/20 11:42:57;;;;;;;1.38;0.90;;;;;;;30.35;14.78;97596.47;5054740;28;20040;-85
2021/01/20 11:45:27;;;;;;;1.10;0.90;;;;;;;30.43;14.72;97589.94;5048646;28;20029;-85